Time;durP1;ratioP1;P1;durP2;ratioP2;P2;SDS_P1;SDS_P2;PMS_P1;PMS_P2;Temp;Humidity;BMP_temperature;BMP_pressure;BME280_temperature;BME280_humidity;BME280_pressure;Samples;Min_cycle;Max_cycle;Signal;HPM_P1;HPM_P2
2021/06/28 00:01:50;;;;;;;12.80;7.90;;;;;;;18.86;100.00;97563.41;5032610;28;20032;-79
2021/06/28 00:04:16;;;;;;;16.58;8.50;;;;;;;18.86;100.00;97569.69;5032043;28;20033;-79
2021/06/28 00:06:41;;;;;;;13.20;8.70;;;;;;;18.78;100.00;97577.69;5033608;28;20025;-78
2021/06/28 00:09:07;;;;;;;10.93;7.10;;;;;;;18.68;100.00;97586.84;5033440;28;20108;-79
2021/06/28 00:11:32;;;;;;;15.55;7.40;;;;;;;18.63;100.00;97573.72;5015568;28;20033;-78
2021/06/28 00:13:58;;;;;;;18.88;7.25;;;;;;;18.55;100.00;97583.59;5015491;28;20032;-78
2021/06/28 00:16:24;;;;;;;15.40;7.40;;;;;;;18.46;100.00;97563.56;5033009;28;20033;-79
2021/06/28 00:18:51;;;;;;;15.88;7.60;;;;;;;18.47;100.00;97576.13;5032066;28;20029;-78
2021/06/28 00:21:17;;;;;;;12.95;7.68;;;;;;;18.40;100.00;97569.56;5015221;28;20033;-79
2021/06/28 00:23:43;;;;;;;10.68;6.97;;;;;;;18.30;100.00;97568.72;5032119;28;20136;-79
2021/06/28 00:26:09;;;;;;;13.45;8.05;;;;;;;18.34;100.00;97579.13;5032039;28;20053;-78
2021/06/28 00:28:34;;;;;;;12.10;7.57;;;;;;;18.30;100.00;97576.84;5032873;28;20500;-78
2021/06/28 00:31:00;;;;;;;16.75;8.13;;;;;;;18.25;100.00;97573.69;5033119;28;20029;-79
2021/06/28 00:33:26;;;;;;;18.42;8.10;;;;;;;18.30;100.00;97584.97;5031479;28;20063;-78
2021/06/28 00:35:52;;;;;;;15.50;8.63;;;;;;;18.22;100.00;97571.28;5015169;28;20030;-79
2021/06/28 00:38:17;;;;;;;12.77;8.00;;;;;;;18.25;100.00;97574.56;5032730;28;20462;-78
2021/06/28 00:40:44;;;;;;;24.73;8.10;;;;;;;18.16;100.00;97575.41;5032868;28;20034;-78
2021/06/28 00:43:10;;;;;;;13.55;8.27;;;;;;;18.15;100.00;97578.28;5031525;28;20400;-79
2021/06/28 00:45:38;;;;;;;12.20;7.45;;;;;;;18.16;100.00;97582.66;5031323;28;20046;-79
2021/06/28 00:48:08;;;;;;;10.50;7.53;;;;;;;18.17;100.00;97589.81;5031475;28;20119;-78
2021/06/28 00:50:36;;;;;;;12.85;6.88;;;;;;;18.08;100.00;97577.13;5032454;28;20095;-79
2021/06/28 00:53:08;;;;;;;12.68;7.20;;;;;;;18.10;100.00;97583.22;5031510;28;20112;-79
2021/06/28 00:55:34;;;;;;;8.30;6.75;;;;;;;18.06;100.00;97569.13;5014656;28;20037;-78
2021/06/28 00:58:00;;;;;;;11.25;6.78;;;;;;;18.02;100.00;97574.97;5014768;28;20075;-79
2021/06/28 01:00:26;;;;;;;9.15;7.47;;;;;;;17.95;100.00;97560.28;5032042;28;20118;-78
2021/06/28 01:02:52;;;;;;;12.48;7.43;;;;;;;17.89;100.00;97561.69;5031392;28;20052;-78
2021/06/28 01:05:21;;;;;;;11.07;7.25;;;;;;;17.84;100.00;97555.84;5032210;28;20511;-78
2021/06/28 01:07:47;;;;;;;11.10;6.78;;;;;;;17.88;100.00;97571.66;5031038;28;20032;-78
2021/06/28 01:10:14;;;;;;;10.43;6.95;;;;;;;17.88;100.00;97563.53;5030979;28;20014;-78
2021/06/28 01:12:42;;;;;;;11.73;7.15;;;;;;;17.88;100.00;97565.38;5014235;28;20343;-79
2021/06/28 01:15:08;;;;;;;14.30;7.30;;;;;;;17.85;100.00;97565.66;5030841;28;20025;-78
2021/06/28 01:17:36;;;;;;;10.63;7.10;;;;;;;17.86;100.00;97578.22;5030627;28;20025;-78
2021/06/28 01:20:13;;;;;;;9.27;6.80;;;;;;;17.79;100.00;97572.50;5032281;28;20112;-78
2021/06/28 01:22:43;;;;;;;10.45;7.38;;;;;;;17.73;100.00;97564.94;5030721;28;20108;-78
2021/06/28 01:25:11;;;;;;;13.93;7.55;;;;;;;17.77;100.00;97569.09;5030917;28;20018;-78
2021/06/28 01:27:38;;;;;;;12.68;7.35;;;;;;;17.77;100.00;97574.50;5030473;28;20026;-78
2021/06/28 01:30:05;;;;;;;13.00;7.20;;;;;;;17.76;100.00;97571.91;5014173;28;20248;-79
2021/06/28 01:32:37;;;;;;;17.77;7.50;;;;;;;17.79;100.00;97575.22;5013890;28;20040;-79
2021/06/28 01:35:04;;;;;;;13.65;7.70;;;;;;;17.74;100.00;97572.06;5030543;28;20496;-77
2021/06/28 01:37:30;;;;;;;10.10;7.07;;;;;;;17.74;100.00;97568.50;5013702;28;20033;-78
2021/06/28 01:39:58;;;;;;;10.52;7.25;;;;;;;17.71;100.00;97561.53;5013816;28;20116;-78
2021/06/28 01:42:25;;;;;;;11.85;7.30;;;;;;;17.71;100.00;97572.34;5031528;28;20128;-77
2021/06/28 01:44:51;;;;;;;12.98;6.25;;;;;;;17.68;100.00;97578.03;5031419;28;20048;-77
2021/06/28 01:47:17;;;;;;;14.85;7.00;;;;;;;17.62;100.00;97575.03;5030382;28;20029;-78
2021/06/28 01:49:43;;;;;;;13.18;6.22;;;;;;;17.59;100.00;97578.00;5030294;28;20056;-78
2021/06/28 01:52:09;;;;;;;9.73;6.93;;;;;;;17.61;100.00;97574.16;5013754;28;20123;-78
2021/06/28 01:54:36;;;;;;;11.25;7.25;;;;;;;17.57;100.00;97574.56;5030209;28;20846;-78
2021/06/28 01:57:01;;;;;;;20.52;7.28;;;;;;;17.53;100.00;97579.38;5030269;28;20033;-78
2021/06/28 01:59:29;;;;;;;14.95;7.43;;;;;;;17.45;100.00;97579.19;5030098;28;20029;-78
2021/06/28 02:01:58;;;;;;;15.93;7.53;;;;;;;17.47;100.00;97590.75;5030100;28;20017;-79
2021/06/28 02:04:25;;;;;;;12.30;7.55;;;;;;;17.49;100.00;97587.88;5030019;28;20506;-77
2021/06/28 02:06:51;;;;;;;16.60;8.40;;;;;;;17.45;100.00;97583.72;5030195;28;20025;-79
2021/06/28 02:09:17;;;;;;;13.52;7.80;;;;;;;17.40;100.00;97581.47;5029893;28;20059;-79
2021/06/28 02:11:43;;;;;;;16.52;7.40;;;;;;;17.47;100.00;97587.19;5029971;28;20034;-79
2021/06/28 02:14:08;;;;;;;11.57;7.60;;;;;;;17.47;100.00;97585.34;5013484;28;20068;-78
2021/06/28 02:16:34;;;;;;;14.23;7.85;;;;;;;17.46;100.00;97586.31;5013250;28;20168;-79
2021/06/28 02:19:00;;;;;;;12.77;7.38;;;;;;;17.44;100.00;97588.31;5013555;28;20496;-78
2021/06/28 02:21:26;;;;;;;12.70;7.70;;;;;;;17.37;100.00;97576.31;5031085;28;20042;-78
2021/06/28 02:23:51;;;;;;;15.35;7.45;;;;;;;17.23;100.00;97582.06;5012571;28;20112;-78
2021/06/28 02:26:17;;;;;;;11.32;7.18;;;;;;;17.27;100.00;97581.69;5013402;28;20112;-78
2021/06/28 02:28:47;;;;;;;15.80;6.63;;;;;;;17.21;100.00;97587.63;5029764;28;20076;-78
2021/06/28 02:31:17;;;;;;;20.95;8.38;;;;;;;17.14;100.00;97578.34;5013790;28;20025;-77
2021/06/28 02:33:43;;;;;;;14.45;7.13;;;;;;;17.19;100.00;97578.81;5030852;28;20478;-77
2021/06/28 02:36:09;;;;;;;9.27;6.57;;;;;;;17.22;100.00;97580.38;5029892;28;20104;-77
2021/06/28 02:38:36;;;;;;;13.35;7.80;;;;;;;17.19;100.00;97588.75;5013144;28;20412;-78
2021/06/28 02:41:03;;;;;;;11.48;7.60;;;;;;;17.13;100.00;97584.75;5013156;28;20099;-78
2021/06/28 02:43:30;;;;;;;11.25;7.13;;;;;;;17.14;100.00;97591.00;5029777;28;20443;-78
2021/06/28 02:45:55;;;;;;;16.45;6.60;;;;;;;17.18;100.00;97592.44;5029419;28;20049;-78
2021/06/28 02:48:21;;;;;;;16.75;7.03;;;;;;;17.16;100.00;97584.50;5013221;28;20041;-78
2021/06/28 02:50:47;;;;;;;13.63;7.20;;;;;;;17.17;100.00;97593.44;5029486;28;20112;-78
2021/06/28 02:53:16;;;;;;;14.73;7.75;;;;;;;17.12;100.00;97595.69;5013112;28;20083;-78
2021/06/28 02:55:42;;;;;;;18.73;7.47;;;;;;;17.00;100.00;97589.53;5029557;28;20029;-79
2021/06/28 02:58:08;;;;;;;18.08;7.28;;;;;;;17.07;100.00;97600.66;5029662;28;20017;-78
2021/06/28 03:00:33;;;;;;;19.13;7.38;;;;;;;17.01;100.00;97587.69;5029387;28;20048;-77
2021/06/28 03:02:59;;;;;;;17.50;8.00;;;;;;;17.07;100.00;97600.66;5022838;28;20034;-77
2021/06/28 03:05:26;;;;;;;13.60;7.22;;;;;;;17.12;100.00;97593.00;5012948;28;20544;-77
2021/06/28 03:07:52;;;;;;;13.63;6.95;;;;;;;17.10;100.00;97589.56;5012865;28;20037;-77
2021/06/28 03:10:17;;;;;;;14.32;7.15;;;;;;;17.06;100.00;97599.78;5013103;28;20034;-77
2021/06/28 03:12:43;;;;;;;11.40;7.32;;;;;;;17.12;100.00;97607.38;5029250;28;20029;-78
2021/06/28 03:15:14;;;;;;;32.65;9.80;;;;;;;17.11;100.00;97610.19;5012969;28;20029;-78
2021/06/28 03:17:40;;;;;;;48.67;12.57;;;;;;;17.11;100.00;97608.34;5013026;28;20108;-78
2021/06/28 03:20:08;;;;;;;52.15;14.55;;;;;;;17.12;100.00;97599.25;5012813;28;20056;-78
2021/06/28 03:22:34;;;;;;;50.20;17.67;;;;;;;17.18;100.00;97600.56;5029427;28;20037;-79
2021/06/28 03:24:59;;;;;;;22.80;9.68;;;;;;;17.10;100.00;97603.91;5012674;28;20083;-78
2021/06/28 03:27:25;;;;;;;21.10;8.18;;;;;;;17.17;100.00;97599.69;5030627;28;20382;-79
2021/06/28 03:29:50;;;;;;;11.77;7.65;;;;;;;17.19;100.00;97600.44;5030554;28;20493;-78
2021/06/28 03:32:16;;;;;;;17.40;7.25;;;;;;;17.27;100.00;97600.63;5030502;28;20087;-78
2021/06/28 03:34:43;;;;;;;18.50;7.82;;;;;;;17.30;100.00;97602.19;5029369;28;20033;-78
2021/06/28 03:37:08;;;;;;;13.02;7.97;;;;;;;17.35;100.00;97608.91;5032379;28;20393;-78
2021/06/28 03:39:34;;;;;;;19.23;8.88;;;;;;;17.33;100.00;97607.31;5034065;28;20064;-78
2021/06/28 03:42:00;;;;;;;22.10;9.45;;;;;;;17.33;100.00;97607.31;5032610;28;20688;-79
2021/06/28 03:44:25;;;;;;;18.42;8.55;;;;;;;17.41;100.00;97609.38;5034008;28;20036;-78
2021/06/28 03:46:51;;;;;;;15.55;8.48;;;;;;;17.41;100.00;97610.19;5015833;28;20099;-79
2021/06/28 03:49:16;;;;;;;19.58;8.82;;;;;;;17.48;100.00;97621.31;5032717;28;20087;-78
2021/06/28 03:51:47;;;;;;;13.13;7.32;;;;;;;17.53;100.00;97610.97;5033826;28;20033;-78
2021/06/28 03:54:13;;;;;;;22.23;8.52;;;;;;;17.66;100.00;97612.47;5032700;28;20037;-78
2021/06/28 03:56:39;;;;;;;11.70;7.75;;;;;;;17.67;100.00;97607.91;5032491;28;20040;-78
2021/06/28 03:59:04;;;;;;;10.23;7.25;;;;;;;17.74;100.00;97615.38;5015674;28;20033;-78
2021/06/28 04:01:30;;;;;;;14.07;8.57;;;;;;;17.76;100.00;97616.06;5032386;28;20041;-78
2021/06/28 04:03:55;;;;;;;18.55;8.07;;;;;;;17.86;100.00;97627.78;5033857;28;20477;-78
2021/06/28 04:06:23;;;;;;;12.70;8.02;;;;;;;17.94;100.00;97623.50;5015765;28;20036;-78
2021/06/28 04:08:48;;;;;;;16.27;9.43;;;;;;;18.06;100.00;97622.41;5032182;28;20124;-78
2021/06/28 04:11:14;;;;;;;22.20;8.85;;;;;;;18.08;100.00;97625.84;5032108;28;20129;-78
2021/06/28 04:13:39;;;;;;;13.68;9.30;;;;;;;18.17;100.00;97634.00;5032311;28;20052;-85
2021/06/28 04:16:05;;;;;;;20.33;8.73;;;;;;;18.21;100.00;97621.84;5017046;28;20500;-80
2021/06/28 04:18:31;;;;;;;13.65;8.63;;;;;;;18.37;100.00;97629.44;5032129;28;20033;-78
2021/06/28 04:20:56;;;;;;;16.30;8.48;;;;;;;18.52;100.00;97635.34;5029606;28;20394;-79
2021/06/28 04:23:22;;;;;;;26.83;9.80;;;;;;;18.59;100.00;97634.63;5013109;28;20041;-79
2021/06/28 04:25:48;;;;;;;16.45;9.15;;;;;;;18.68;100.00;97630.19;5028937;28;20034;-78
2021/06/28 04:28:13;;;;;;;16.80;9.23;;;;;;;18.76;100.00;97633.91;5012736;28;20036;-79
2021/06/28 04:30:39;;;;;;;16.35;9.00;;;;;;;18.82;100.00;97636.06;5029097;28;20036;-79
2021/06/28 04:33:05;;;;;;;17.38;8.90;;;;;;;18.93;100.00;97641.31;5012385;28;20191;-79
2021/06/28 04:35:31;;;;;;;25.38;9.95;;;;;;;19.05;100.00;97635.72;5029222;28;20555;-79
2021/06/28 04:37:58;;;;;;;21.92;10.23;;;;;;;19.14;100.00;97642.97;5028937;28;20128;-78
2021/06/28 04:40:29;;;;;;;19.35;9.75;;;;;;;19.26;100.00;97637.25;5029448;28;20033;-79
2021/06/28 04:42:55;;;;;;;25.17;12.85;;;;;;;19.34;100.00;97639.25;5012338;28;20123;-78
2021/06/28 04:45:22;;;;;;;16.48;9.48;;;;;;;19.35;100.00;97632.78;5030221;28;20046;-86
2021/06/28 04:47:48;;;;;;;20.95;10.68;;;;;;;19.38;100.00;97640.66;5014619;28;20037;-86
2021/06/28 04:50:15;;;;;;;16.77;9.00;;;;;;;19.50;100.00;97638.66;5031485;28;20029;-85
2021/06/28 04:52:41;;;;;;;16.05;8.80;;;;;;;20.19;99.73;97639.88;5031573;28;20033;-85
2021/06/28 04:55:10;;;;;;;16.58;8.35;;;;;;;21.61;88.09;97641.53;5014659;28;20036;-86
2021/06/28 04:57:36;;;;;;;14.30;7.63;;;;;;;22.45;81.85;97647.03;5032416;28;20025;-85
2021/06/28 05:00:05;;;;;;;13.00;7.25;;;;;;;23.96;73.44;97642.78;5012795;28;20036;-79
2021/06/28 05:02:31;;;;;;;12.02;6.88;;;;;;;25.53;65.78;97660.66;5024682;28;20037;-79
2021/06/28 05:04:56;;;;;;;15.55;7.80;;;;;;;27.16;58.17;97651.06;5012157;28;20044;-79
2021/06/28 05:07:22;;;;;;;15.63;7.53;;;;;;;27.74;55.42;97658.13;5011709;28;20045;-79
2021/06/28 05:09:47;;;;;;;16.67;8.25;;;;;;;28.67;52.27;97665.09;5011742;28;20036;-78
2021/06/28 05:12:14;;;;;;;14.63;7.97;;;;;;;29.02;50.65;97662.00;5028984;28;20087;-79
2021/06/28 05:14:40;;;;;;;18.33;7.45;;;;;;;29.49;49.01;97676.75;5012057;28;20100;-79
2021/06/28 05:17:07;;;;;;;12.95;6.55;;;;;;;30.97;45.87;97682.47;5028392;28;20408;-79
2021/06/28 05:19:33;;;;;;;15.45;6.80;;;;;;;31.91;43.33;97685.25;5028230;28;20489;-79
2021/06/28 05:21:59;;;;;;;20.45;7.50;;;;;;;32.73;41.61;97693.19;5027737;28;20040;-79
2021/06/28 05:24:24;;;;;;;11.68;7.57;;;;;;;33.76;39.23;97693.91;5028217;28;20029;-80
2021/06/28 05:26:50;;;;;;;12.57;7.88;;;;;;;34.25;38.27;97701.00;5011631;28;20119;-78
2021/06/28 05:29:15;;;;;;;14.93;7.93;;;;;;;33.33;39.74;97701.59;5011522;28;20021;-80
2021/06/28 05:31:41;;;;;;;18.33;7.25;;;;;;;34.25;38.20;97704.63;5011168;28;20030;-82
2021/06/28 05:34:07;;;;;;;12.07;7.25;;;;;;;34.10;38.19;97701.47;5027708;28;20522;-82
2021/06/28 05:36:33;;;;;;;11.75;6.88;;;;;;;34.13;38.04;97712.13;5011122;28;20034;-82
2021/06/28 05:38:59;;;;;;;32.90;7.75;;;;;;;34.80;37.12;97707.88;5027869;28;20029;-81
2021/06/28 05:41:25;;;;;;;22.65;7.47;;;;;;;35.89;35.71;97709.53;5010947;28;20502;-81
2021/06/28 05:43:51;;;;;;;15.60;6.57;;;;;;;37.00;33.62;97718.00;5011148;28;20033;-81
2021/06/28 05:46:16;;;;;;;16.05;6.50;;;;;;;37.59;32.62;97717.09;5011211;28;20132;-81
2021/06/28 05:48:42;;;;;;;15.40;7.82;;;;;;;37.90;31.73;97712.66;5011696;28;20033;-81
2021/06/28 05:51:08;;;;;;;17.23;7.55;;;;;;;38.50;31.22;97723.53;5011330;28;20029;-81
2021/06/28 05:53:33;;;;;;;11.10;6.70;;;;;;;38.96;29.91;97719.06;5027784;28;20029;-81
2021/06/28 05:56:00;;;;;;;12.15;6.70;;;;;;;38.29;30.65;97722.50;5027906;28;20022;-82
2021/06/28 05:58:28;;;;;;;11.57;7.97;;;;;;;38.90;30.37;97722.97;5027862;28;20057;-81
2021/06/28 06:00:55;;;;;;;15.23;6.68;;;;;;;39.25;29.67;97717.56;5011164;28;20033;-82
2021/06/28 06:03:21;;;;;;;10.50;5.85;;;;;;;39.35;29.37;97725.16;5011269;28;20021;-81
2021/06/28 06:05:46;;;;;;;17.00;6.75;;;;;;;37.91;31.92;97729.16;5011016;28;20371;-82
2021/06/28 06:08:12;;;;;;;9.82;7.05;;;;;;;38.07;30.20;97726.50;5026993;28;20085;-81
2021/06/28 06:10:38;;;;;;;14.30;6.65;;;;;;;37.77;31.12;97729.81;5011003;28;20112;-81
2021/06/28 06:13:03;;;;;;;13.57;7.10;;;;;;;38.23;30.32;97729.16;5027167;28;20040;-81
2021/06/28 06:15:29;;;;;;;9.43;6.82;;;;;;;38.71;29.72;97725.34;5027619;28;20033;-81
2021/06/28 06:17:55;;;;;;;18.20;6.13;;;;;;;39.17;29.01;97723.66;5010572;28;20021;-81
2021/06/28 06:20:20;;;;;;;11.05;6.28;;;;;;;39.72;28.16;97722.19;5027094;28;20029;-82
2021/06/28 06:22:46;;;;;;;12.40;6.35;;;;;;;37.06;31.39;97726.19;5027584;28;20026;-81
2021/06/28 06:25:12;;;;;;;10.23;5.93;;;;;;;35.02;34.86;97719.19;5027376;28;20025;-81
2021/06/28 06:27:37;;;;;;;12.18;6.47;;;;;;;35.23;34.83;97728.81;5027119;28;20039;-81
2021/06/28 06:30:05;;;;;;;12.65;6.70;;;;;;;33.92;36.63;97732.09;5027868;28;20029;-81
2021/06/28 06:32:31;;;;;;;8.40;6.10;;;;;;;34.30;37.40;97724.19;5027071;28;20073;-81
2021/06/28 06:34:56;;;;;;;12.35;5.90;;;;;;;36.87;32.96;97720.03;5027007;28;20107;-81
2021/06/28 06:37:22;;;;;;;20.10;6.95;;;;;;;38.58;30.56;97725.00;5027237;28;20152;-82
2021/06/28 06:39:48;;;;;;;12.20;6.32;;;;;;;39.52;28.93;97722.97;5010716;28;20036;-81
2021/06/28 06:42:14;;;;;;;8.48;6.13;;;;;;;38.34;30.86;97730.06;5010194;28;20567;-81
2021/06/28 06:44:40;;;;;;;10.20;7.03;;;;;;;37.69;31.40;97719.97;5026935;28;20025;-82
2021/06/28 06:47:05;;;;;;;11.13;5.80;;;;;;;35.69;33.74;97725.00;5026636;28;20128;-81
2021/06/28 06:49:31;;;;;;;12.52;5.88;;;;;;;36.56;32.10;97715.13;5010718;28;20029;-81
2021/06/28 06:51:56;;;;;;;14.85;5.70;;;;;;;37.42;31.79;97722.72;5010439;28;20029;-81
2021/06/28 06:54:22;;;;;;;16.40;5.55;;;;;;;38.91;29.05;97714.31;5028128;28;20041;-81
2021/06/28 06:56:49;;;;;;;8.98;5.40;;;;;;;39.35;29.00;97708.34;5010472;28;20037;-82
2021/06/28 06:59:15;;;;;;;9.18;5.22;;;;;;;39.07;29.24;97711.59;5027864;28;20069;-81
2021/06/28 07:01:42;;;;;;;12.27;5.45;;;;;;;38.36;30.27;97723.13;5026888;28;20551;-81
2021/06/28 07:04:08;;;;;;;17.92;5.85;;;;;;;38.79;29.89;97724.88;5010510;28;20484;-81
2021/06/28 07:06:34;;;;;;;14.65;5.55;;;;;;;39.74;29.44;97728.38;5026895;28;20021;-82
2021/06/28 07:09:00;;;;;;;9.55;5.35;;;;;;;40.17;28.69;97721.47;5026993;28;20041;-82
2021/06/28 07:11:25;;;;;;;12.55;6.07;;;;;;;40.69;26.75;97713.59;5030294;28;20025;-82
2021/06/28 07:13:52;;;;;;;9.05;5.50;;;;;;;41.88;26.36;97723.81;5014219;28;20029;-82
2021/06/28 07:16:18;;;;;;;11.50;5.60;;;;;;;41.60;26.96;97714.13;5030550;28;20021;-81
2021/06/28 07:18:45;;;;;;;9.23;5.25;;;;;;;41.01;26.57;97716.03;5030440;28;20025;-82
2021/06/28 07:21:11;;;;;;;13.68;5.90;;;;;;;39.34;29.04;97706.69;5013767;28;20033;-81
2021/06/28 07:23:38;;;;;;;11.18;5.35;;;;;;;37.93;30.03;97710.16;5014027;28;20029;-82
2021/06/28 07:26:03;;;;;;;9.73;5.60;;;;;;;38.31;29.58;97713.84;5013810;28;20036;-76
2021/06/28 07:28:29;;;;;;;8.85;5.43;;;;;;;39.37;29.49;97706.13;5030174;28;20408;-76
2021/06/28 07:30:58;;;;;;;11.57;5.35;;;;;;;39.81;28.47;97712.97;5013754;28;20029;-76
2021/06/28 07:33:25;;;;;;;36.05;7.30;;;;;;;40.88;27.50;97709.06;5030092;28;20029;-76
2021/06/28 07:35:51;;;;;;;9.15;5.35;;;;;;;41.13;26.91;97703.34;5013557;28;20040;-76
2021/06/28 07:38:16;;;;;;;13.95;5.68;;;;;;;40.86;27.26;97697.25;5030485;28;20029;-77
2021/06/28 07:40:42;;;;;;;12.48;6.30;;;;;;;40.55;27.60;97702.09;5030153;28;20434;-76
2021/06/28 07:43:07;;;;;;;11.70;5.85;;;;;;;41.59;26.08;97700.38;5029946;28;20028;-77
2021/06/28 07:45:33;;;;;;;17.85;5.28;;;;;;;42.55;25.10;97708.09;5013171;28;20054;-77
2021/06/28 07:47:59;;;;;;;18.17;6.60;;;;;;;43.19;24.69;97697.28;5013725;28;20519;-76
2021/06/28 07:50:25;;;;;;;31.30;10.20;;;;;;;43.41;24.47;97705.19;5013593;28;20029;-77
2021/06/28 07:52:50;;;;;;;11.70;4.70;;;;;;;42.78;24.02;97709.28;5030170;28;20049;-77
2021/06/28 07:55:16;;;;;;;61.08;6.82;;;;;;;42.97;24.20;97699.81;5029569;28;20021;-77
2021/06/28 07:57:42;;;;;;;23.33;6.63;;;;;;;42.79;24.14;97708.16;5030093;28;20029;-77
2021/06/28 08:00:10;;;;;;;9.15;4.05;;;;;;;42.00;23.85;97689.69;5013351;28;20454;-77
2021/06/28 08:02:35;;;;;;;9.57;4.60;;;;;;;42.71;23.81;97703.16;5029771;28;20033;-77
2021/06/28 08:05:02;;;;;;;21.10;5.55;;;;;;;42.45;23.15;97691.31;5029806;28;20508;-77
2021/06/28 08:07:28;;;;;;;9.65;4.28;;;;;;;42.26;22.81;97694.03;5029053;28;20026;-77
2021/06/28 08:09:54;;;;;;;11.68;3.10;;;;;;;41.94;22.54;97686.09;5029418;28;20116;-77
2021/06/28 08:12:19;;;;;;;6.25;4.35;;;;;;;41.52;22.76;97681.00;5029220;28;20548;-77
2021/06/28 08:14:45;;;;;;;15.02;4.28;;;;;;;42.08;23.14;97692.75;5012813;28;20037;-77
2021/06/28 08:17:11;;;;;;;6.03;3.85;;;;;;;43.81;20.03;97680.44;5012924;28;20026;-77
2021/06/28 08:19:36;;;;;;;9.05;4.07;;;;;;;44.27;20.86;97689.00;5012185;28;20120;-77
2021/06/28 08:22:03;;;;;;;13.07;4.38;;;;;;;44.66;20.96;97698.75;5030745;28;20025;-77
2021/06/28 08:24:28;;;;;;;12.32;4.30;;;;;;;44.14;21.89;97688.63;5031071;28;20083;-77
2021/06/28 08:26:54;;;;;;;11.55;4.95;;;;;;;44.64;21.87;97705.88;5031937;28;20025;-77
2021/06/28 08:29:20;;;;;;;10.55;3.58;;;;;;;41.92;22.41;97694.00;5031544;28;20124;-78
2021/06/28 08:31:46;;;;;;;5.78;3.50;;;;;;;42.48;20.85;97690.72;5032904;28;20092;-76
2021/06/28 08:34:13;;;;;;;3.63;3.28;;;;;;;43.53;20.28;97687.84;5031572;28;20136;-77
2021/06/28 08:36:39;;;;;;;6.22;3.85;;;;;;;44.26;21.58;97698.63;5015097;28;20451;-76
2021/06/28 08:39:06;;;;;;;9.48;3.33;;;;;;;44.57;19.35;97677.19;5015084;28;20025;-76
2021/06/28 08:41:32;;;;;;;10.60;3.33;;;;;;;44.17;19.70;97687.19;5014831;28;20113;-76
2021/06/28 08:43:58;;;;;;;5.38;3.65;;;;;;;42.73;20.29;97679.22;5014908;28;20029;-77
2021/06/28 08:46:24;;;;;;;3.35;3.05;;;;;;;43.50;19.60;97680.00;5014708;28;20567;-77
2021/06/28 08:48:49;;;;;;;3.50;3.10;;;;;;;42.57;19.96;97674.88;5031471;28;20021;-76
2021/06/28 08:51:16;;;;;;;4.32;3.60;;;;;;;43.35;20.77;97683.81;5031420;28;20408;-77
2021/06/28 08:53:42;;;;;;;6.80;5.45;;;;;;;44.18;21.57;97692.50;5031304;28;20025;-76
2021/06/28 08:56:07;;;;;;;3.78;3.30;;;;;;;45.27;16.99;97672.97;5014871;28;20013;-77
2021/06/28 08:58:39;;;;;;;5.07;3.67;;;;;;;45.66;18.28;97680.03;5031193;28;20036;-77
2021/06/28 09:01:09;;;;;;;12.80;4.10;;;;;;;45.68;17.82;97675.78;5031179;28;20048;-76
2021/06/28 09:03:34;;;;;;;8.48;3.30;;;;;;;47.12;16.77;97681.97;5014517;28;20037;-76
2021/06/28 09:06:14;;;;;;;3.67;3.30;;;;;;;46.58;15.73;97665.38;5014470;28;20025;-77
2021/06/28 09:08:58;;;;;;;6.90;2.67;;;;;;;46.62;16.32;97672.03;5016046;28;20029;-76
2021/06/28 09:11:25;;;;;;;5.13;3.45;;;;;;;46.40;16.60;97677.69;5032072;28;20448;-78
2021/06/28 09:13:53;;;;;;;4.88;3.22;;;;;;;46.10;19.03;97682.16;5030881;28;20032;-75
2021/06/28 09:16:22;;;;;;;6.10;4.03;;;;;;;45.88;19.26;97676.44;5014413;28;20024;-76
2021/06/28 09:18:49;;;;;;;5.15;2.83;;;;;;;45.57;17.54;97679.09;5030792;28;20467;-75
2021/06/28 09:21:15;;;;;;;8.55;3.10;;;;;;;42.94;20.92;97672.22;5031910;28;20026;-76
2021/06/28 09:23:41;;;;;;;8.90;3.17;;;;;;;44.33;18.34;97673.66;5014008;28;20021;-77
2021/06/28 09:26:12;;;;;;;3.65;3.20;;;;;;;43.65;18.10;97657.22;5030712;28;20017;-76
2021/06/28 09:28:40;;;;;;;;;;;;;;;43.12;20.10;97674.28;5014526;28;20076;-75
2021/06/28 09:31:07;;;;;;;8.88;2.80;;;;;;;44.37;17.53;97669.03;5014323;28;19909;-76
2021/06/28 09:33:33;;;;;;;3.63;3.05;;;;;;;43.62;19.24;97655.88;5030369;28;20029;-76
2021/06/28 09:35:59;;;;;;;3.55;2.97;;;;;;;44.70;20.09;97671.56;5014149;28;20382;-76
2021/06/28 09:38:37;;;;;;;4.97;3.13;;;;;;;43.07;19.48;97665.88;5030475;28;20091;-76
2021/06/28 09:41:23;;;;;;;12.38;6.53;;;;;;;41.61;21.81;97675.63;5014057;28;20025;-76
2021/06/28 09:43:49;;;;;;;7.95;3.83;;;;;;;41.17;22.43;97664.31;5031407;28;20029;-75
2021/06/28 09:46:19;;;;;;;6.38;2.97;;;;;;;42.99;20.85;97674.16;5030305;28;20103;-75
2021/06/28 09:48:53;;;;;;;11.20;4.03;;;;;;;43.31;21.41;97670.66;5013687;28;20025;-76
2021/06/28 09:51:27;;;;;;;8.13;3.60;;;;;;;42.70;20.74;97659.28;5030203;28;20485;-76
2021/06/28 09:54:15;;;;;;;7.95;4.10;;;;;;;43.04;19.69;97658.03;5030199;28;20129;-75
2021/06/28 09:56:46;;;;;;;5.72;3.58;;;;;;;44.52;19.47;97675.25;5029915;28;20025;-75
2021/06/28 09:59:35;;;;;;;6.93;4.00;;;;;;;44.61;20.10;97669.78;5013832;28;20017;-75
2021/06/28 10:02:15;;;;;;;5.20;3.38;;;;;;;44.33;19.89;97671.69;5029975;28;20037;-76
2021/06/28 10:07:20;;;;;;;5.10;3.15;;;;;;;45.02;20.13;97673.50;5030224;28;20029;-75
2021/06/28 10:10:03;;;;;;;6.53;2.95;;;;;;;44.04;19.40;97657.75;5029912;28;20048;-75
2021/06/28 10:12:52;;;;;;;6.85;3.50;;;;;;;44.54;19.87;97670.19;5004973;28;20053;-76
2021/06/28 10:15:20;;;;;;;6.13;3.00;;;;;;;45.03;19.20;97663.88;5030072;28;20420;-76
2021/06/28 10:17:47;;;;;;;6.90;3.25;;;;;;;45.44;19.48;97674.34;5013262;28;20036;-76
2021/06/28 10:20:17;;;;;;;10.50;3.47;;;;;;;45.36;18.10;97663.75;5013281;28;20029;-76
2021/06/28 10:22:43;;;;;;;13.23;3.22;;;;;;;45.42;18.41;97662.50;5013000;28;20033;-76
2021/06/28 10:25:10;;;;;;;6.53;3.38;;;;;;;45.11;18.48;97660.31;5029607;28;20033;-76
2021/06/28 10:27:36;;;;;;;12.60;3.08;;;;;;;43.55;19.85;97648.91;5012904;28;20588;-75
2021/06/28 10:30:06;;;;;;;7.72;3.30;;;;;;;44.54;19.42;97672.16;5013038;28;20021;-76
2021/06/28 10:32:32;;;;;;;3.20;2.92;;;;;;;43.38;20.41;97655.06;5029683;28;20057;-76
2021/06/28 10:34:58;;;;;;;7.60;3.10;;;;;;;44.55;19.24;97656.88;5013220;28;20060;-83
2021/06/28 10:37:40;;;;;;;9.27;4.05;;;;;;;44.28;20.27;97651.16;5013458;28;20132;-75
2021/06/28 10:40:12;;;;;;;11.73;3.22;;;;;;;44.33;20.04;97654.75;5012987;28;20039;-81
2021/06/28 10:42:45;;;;;;;12.77;3.20;;;;;;;44.69;20.91;97652.94;5010386;28;20425;-80
2021/06/28 10:45:12;;;;;;;4.22;2.90;;;;;;;45.63;17.73;97646.72;5028420;28;20485;-81
2021/06/28 10:47:39;;;;;;;9.02;3.15;;;;;;;44.99;20.14;97645.88;5014352;28;20152;-81
2021/06/28 10:50:06;;;;;;;9.05;4.03;;;;;;;44.95;21.38;97663.78;5014205;28;20522;-81
2021/06/28 10:52:38;;;;;;;12.05;4.00;;;;;;;45.82;19.54;97658.75;5014238;28;20092;-81
2021/06/28 10:55:27;;;;;;;8.85;3.33;;;;;;;45.45;19.77;97647.72;5028464;28;20037;-82
2021/06/28 10:57:56;;;;;;;7.68;3.22;;;;;;;46.24;18.94;97649.78;5018192;28;20053;-81
2021/06/28 11:00:53;;;;;;;4.63;3.08;;;;;;;43.75;20.17;97640.13;5014343;28;20025;-82
2021/06/28 11:03:32;;;;;;;7.68;3.40;;;;;;;44.92;21.01;97656.75;5014071;28;20029;-81
2021/06/28 11:06:13;;;;;;;5.85;3.42;;;;;;;45.86;19.13;97642.81;5030250;28;20120;-81
2021/06/28 11:08:58;;;;;;;6.18;3.35;;;;;;;46.26;20.14;97650.31;5031558;28;20033;-81
2021/06/28 11:11:42;;;;;;;8.18;3.47;;;;;;;47.05;18.59;97653.25;5008822;28;20448;-81
2021/06/28 11:14:08;;;;;;;7.82;3.17;;;;;;;46.24;18.81;97631.97;5028667;28;20037;-81
2021/06/28 11:16:34;;;;;;;9.07;2.85;;;;;;;46.61;18.19;97642.03;5013941;28;20029;-82
2021/06/28 11:19:00;;;;;;;5.25;3.40;;;;;;;46.72;18.99;97626.44;5013636;28;20037;-81
2021/06/28 11:21:41;;;;;;;8.40;3.80;;;;;;;45.85;19.51;97635.47;5013797;28;20087;-80
2021/06/28 11:24:07;;;;;;;5.63;2.97;;;;;;;45.84;18.32;97625.31;5030393;28;20487;-80
2021/06/28 11:26:34;;;;;;;4.90;3.17;;;;;;;45.77;19.43;97617.28;5030390;28;20037;-80
2021/06/28 11:29:01;;;;;;;7.22;3.25;;;;;;;46.01;19.50;97622.63;5029899;28;20187;-80